KSEF

Details ICAO KSEF (SEF)
Name SEBRING RGNL
Region United States
Timezone America/New_York (UTC-4.0)
Plans Departing 22
Arriving 24
Stats Elevation 63 ft / 19 m (AMSL)
Location 27.456400° -81.342400°
Runways 2
Magnetic Variation 6.374° W
Sunrise 2019-05-20 10:35:44 UTC / 2019-05-20 06:35:44 Local
Sunset 2019-05-21 00:10:53 UTC / 2019-05-20 20:10:53 Local
Advertisement - Login to hide

Runways

ID Width Length Bearing (true/mag) Surface Threshold Overrun Markings Lighting
14 100 ft / 30 m 4,980 ft / 1,518 m 135.02° / 141.39° CONCRETE 282 ft / 86 m 0 ft / 0 m APP
18 100 ft / 30 m 5,241 ft / 1,598 m 179.80° / 186.17° ASPHALT 0 ft / 0 m 0 ft / 0 m APP EDGE THRESHOLD
32 100 ft / 30 m 4,980 ft / 1,518 m 315.02° / 321.39° CONCRETE 0 ft / 0 m 0 ft / 0 m APP
36 100 ft / 30 m 5,241 ft / 1,598 m 359.80° / 6.17° ASPHALT 0 ft / 0 m 0 ft / 0 m APP EDGE THRESHOLD

Map

Weather


0- 5 10 15 20 25 30 35+ Temperature / °C

Clouds and Precipitation
Forecast for 2019-05-20 18:00 UTC. Updated 37 minutes ago

Ground ~20,000 ft ~40,000 ft Winds

METAR

KSEF 201555Z AUTO 31003KT 10SM CLR 30/19 A3005 RMK AO2 T02990187

TAF

Not found

Frequencies

Unicom 122.70 MHz CTAF/UNICOM
Recorded 119.47 MHz AWOS 3
Warning: Do not use this data for real-world aviation or navigation. No guarantee of current accuracy is given.